Time;durP1;ratioP1;P1;durP2;ratioP2;P2;SDS_P1;SDS_P2;PMS_P1;PMS_P2;Temp;Humidity;BMP_temperature;BMP_pressure;BME280_temperature;BME280_humidity;BME280_pressure;Samples;Min_cycle;Max_cycle;Signal;HPM_P1;HPM_P2
2021/05/06 00:33:14;;;;;;;9.52;4.45;;;;;;;;;;5072898;28;20047;-76
2021/05/06 00:35:41;;;;;;;9.05;4.18;;;;;;;;;;5092185;28;20521;-77
2021/05/06 00:38:11;;;;;;;10.57;4.25;;;;;;;;;;5092385;28;20036;-76
2021/05/06 00:59:47;;;;;;;11.27;4.32;;;;;;;;;;5090619;28;20066;-77
2021/05/06 01:12:31;;;;;;;7.65;3.80;;;;;;;;;;5082608;28;20126;-75
2021/05/06 01:14:57;;;;;;;9.50;3.97;;;;;;;;;;5076607;28;20929;-75
2021/05/06 01:17:23;;;;;;;10.68;4.10;;;;;;;;;;5079147;28;20047;-76
2021/05/06 01:19:49;;;;;;;10.70;3.92;;;;;;;;;;5084339;28;20134;-75
2021/05/06 01:22:15;;;;;;;8.63;4.15;;;;;;;;;;5090291;28;20462;-75
2021/05/06 01:24:43;;;;;;;7.57;3.90;;;;;;;;;;5087304;28;20058;-75
2021/05/06 01:27:16;;;;;;;7.60;3.88;;;;;;;;;;5077802;28;20108;-75
2021/05/06 01:29:57;;;;;;;7.68;3.40;;;;;;;;;;5072439;28;20131;-75
2021/05/06 01:32:29;;;;;;;8.80;3.88;;;;;;;;;;5071568;28;20035;-75
2021/05/06 01:34:59;;;;;;;8.32;3.55;;;;;;;;;;5070949;28;20035;-75
2021/05/06 01:49:24;;;;;;;7.18;3.47;;;;;;;;;;5071199;28;20123;-79
2021/05/06 01:57:30;;;;;;;8.02;3.78;;;;;;;;;;5070000;28;20087;-76
2021/05/06 02:02:06;;;;;;;7.18;3.67;;;;;;;;;;5072227;28;20080;-76
2021/05/06 02:04:32;;;;;;;7.25;3.72;;;;;;;;;;5074379;28;20414;-74
2021/05/06 02:06:58;;;;;;;6.25;3.45;;;;;;;;;;5080356;28;20540;-76
2021/05/06 02:09:24;;;;;;;7.13;3.95;;;;;;;;;;5071329;28;20132;-77
2021/05/06 02:11:50;;;;;;;8.52;3.33;;;;;;;;;;5070806;28;20134;-77
2021/05/06 02:14:16;;;;;;;10.32;3.60;;;;;;;;;;5071502;28;20047;-77
2021/05/06 02:16:42;;;;;;;17.30;3.75;;;;;;;;;;5085142;28;20035;-75
2021/05/06 02:19:09;;;;;;;13.02;3.53;;;;;;;;;;5070812;28;20036;-76
2021/05/06 02:21:35;;;;;;;6.63;3.10;;;;;;;;;;5072710;28;20040;-79
2021/05/06 02:24:01;;;;;;;7.85;3.40;;;;;;;;;;5090428;28;20024;-76
2021/05/06 02:26:27;;;;;;;7.68;3.60;;;;;;;;;;5090737;28;20375;-77
2021/05/06 02:28:53;;;;;;;6.25;3.13;;;;;;;;;;5085635;28;20528;-77
2021/05/06 02:31:21;;;;;;;7.87;3.30;;;;;;;;;;5071559;28;20162;-76
2021/05/06 02:33:48;;;;;;;7.78;3.30;;;;;;;;;;5086240;28;20262;-75
2021/05/06 02:36:14;;;;;;;7.55;3.40;;;;;;;;;;5070666;28;20126;-76
2021/05/06 02:38:40;;;;;;;7.33;3.53;;;;;;;;;;5087808;28;20028;-76
2021/05/06 02:41:06;;;;;;;6.90;3.03;;;;;;;;;;5089380;28;20036;-76
2021/05/06 02:43:32;;;;;;;7.63;3.33;;;;;;;;;;5090391;28;20051;-75
2021/05/06 02:45:58;;;;;;;6.90;3.10;;;;;;;;;;5079401;28;20083;-76
2021/05/06 02:48:24;;;;;;;9.52;3.80;;;;;;;;;;5075614;28;20355;-77
2021/05/06 02:50:57;;;;;;;6.40;3.40;;;;;;;;;;5090732;28;20028;-76
2021/05/06 02:53:26;;;;;;;12.73;3.67;;;;;;;;;;5090546;28;20040;-77
2021/05/06 03:03:57;;;;;;;5.85;3.22;;;;;;;;;;5080848;28;20089;-76
2021/05/06 03:06:27;;;;;;;5.43;3.50;;;;;;;;;;5078314;28;20075;-77
2021/05/06 03:09:00;;;;;;;5.38;3.20;;;;;;;;;;5073528;28;20021;-77
2021/05/06 03:11:45;;;;;;;6.80;3.20;;;;;;;;;;5074257;28;20032;-77
2021/05/06 03:24:56;;;;;;;6.80;3.20;;;;;;;;;;5082450;28;20590;-76
2021/05/06 03:27:27;;;;;;;5.28;2.97;;;;;;;;;;5093600;28;20462;-75
2021/05/06 03:30:06;;;;;;;6.15;3.20;;;;;;;;;;5085172;28;20047;-76
2021/05/06 03:36:01;;;;;;;6.00;3.13;;;;;;;;;;5073630;28;20589;-75
2021/05/06 04:18:23;;;;;;;6.15;3.13;;;;;;;;;;5072082;28;20035;-75
2021/05/06 04:26:34;;;;;;;7.13;2.90;;;;;;;;;;5092639;28;20047;-75
2021/05/06 04:37:14;;;;;;;5.38;2.55;;;;;;;;;;5092544;28;20093;-75
2021/05/06 04:39:56;;;;;;;6.60;2.57;;;;;;;;;;5077876;28;20483;-75
2021/05/06 05:06:40;;;;;;;5.75;1.90;;;;;;;;;;5078129;28;20493;-77
2021/05/06 05:11:48;;;;;;;5.30;1.77;;;;;;;;;;5084144;28;20128;-77
2021/05/06 05:14:38;;;;;;;5.68;2.15;;;;;;;;;;5083991;28;20028;-82
2021/05/06 05:25:28;;;;;;;8.25;1.80;;;;;;;;;;5076859;28;20216;-76
2021/05/06 05:27:58;;;;;;;9.40;1.75;;;;;;;;;;5091427;28;20102;-76
2021/05/06 05:30:26;;;;;;;15.40;2.08;;;;;;;;;;5080051;28;20020;-79
2021/05/06 05:32:52;;;;;;;4.45;1.73;;;;;;;;;;5076957;28;20046;-76
2021/05/06 05:38:20;;;;;;;9.23;1.77;;;;;;;;;;5088058;28;20273;-77
2021/05/06 05:41:00;;;;;;;4.00;2.08;;;;;;;;;;5082085;28;20044;-77
2021/05/06 05:43:58;;;;;;;4.15;1.80;;;;;;;;;;5082398;28;20054;-76
2021/05/06 05:54:36;;;;;;;4.32;2.33;;;;;;;;;;5091734;28;20042;-77
2021/05/06 05:57:02;;;;;;;;;;;;;;;;;;5091112;28;20028;-75
2021/05/06 05:59:28;;;;;;;3.75;1.92;;;;;;;;;;5090577;28;19926;-75
2021/05/06 06:01:54;;;;;;;3.00;1.53;;;;;;;;;;5086986;28;20111;-76
2021/05/06 06:04:20;;;;;;;3.87;1.57;;;;;;;;;;5076852;28;20123;-76
2021/05/06 06:06:46;;;;;;;4.90;2.10;;;;;;;;;;5071660;28;20398;-76
2021/05/06 06:09:12;;;;;;;4.30;1.70;;;;;;;;;;5073211;28;20150;-76
2021/05/06 06:11:38;;;;;;;4.43;1.87;;;;;;;;;;5070362;28;20040;-76
2021/05/06 06:14:08;;;;;;;3.57;2.03;;;;;;;;;;5084343;28;20024;-75
2021/05/06 06:16:37;;;;;;;3.17;1.70;;;;;;;;;;5090839;28;20027;-76
2021/05/06 06:19:04;;;;;;;2.45;1.58;;;;;;;;;;5087995;28;20086;-75
2021/05/06 06:23:59;;;;;;;3.65;1.60;;;;;;;;;;5079333;28;19926;-74
2021/05/06 06:26:26;;;;;;;5.53;1.80;;;;;;;;;;5071781;28;20519;-75
2021/05/06 06:28:55;;;;;;;6.53;1.70;;;;;;;;;;5068658;28;20051;-76
2021/05/06 06:31:24;;;;;;;3.60;2.20;;;;;;;;;;5074346;28;20087;-76
2021/05/06 06:33:50;;;;;;;2.10;1.70;;;;;;;;;;5070727;28;20029;-76
2021/05/06 06:36:17;;;;;;;3.70;1.77;;;;;;;;;;5070544;28;20025;-75
2021/05/06 06:38:44;;;;;;;4.15;1.90;;;;;;;;;;5074451;28;20114;-77
2021/05/06 06:41:12;;;;;;;2.58;1.90;;;;;;;;;;5090005;28;20048;-77
2021/05/06 06:43:40;;;;;;;4.85;2.10;;;;;;;;;;5094793;28;20020;-76
2021/05/06 06:46:06;;;;;;;4.50;1.70;;;;;;;;;;5094651;28;20126;-77
2021/05/06 06:48:33;;;;;;;2.97;1.77;;;;;;;;;;5076344;28;20379;-77
2021/05/06 06:50:59;;;;;;;4.05;1.70;;;;;;;;;;5073601;28;20139;-76
2021/05/06 06:53:25;;;;;;;2.42;1.60;;;;;;;;;;5074627;28;20138;-75
2021/05/06 06:55:51;;;;;;;2.93;1.90;;;;;;;;;;5094761;28;20028;-77
2021/05/06 06:58:17;;;;;;;3.43;1.80;;;;;;;;;;5094857;28;20027;-76
2021/05/06 07:00:44;;;;;;;2.90;1.70;;;;;;;;;;5094416;28;20047;-75
2021/05/06 07:03:11;;;;;;;2.55;1.77;;;;;;;;;;5094107;28;20050;-76
2021/05/06 07:05:37;;;;;;;3.40;1.70;;;;;;;;;;5094577;28;20070;-77
2021/05/06 07:08:03;;;;;;;;;;;;;;;;;;5094563;28;20077;-76
2021/05/06 07:10:29;;;;;;;1.90;1.67;;;;;;;;;;5078598;28;19943;-76
2021/05/06 07:12:55;;;;;;;2.40;1.73;;;;;;;;;;5073518;28;20044;-75
2021/05/06 07:15:21;;;;;;;2.83;1.73;;;;;;;;;;5073969;28;20379;-76
2021/05/06 07:17:47;;;;;;;2.93;1.70;;;;;;;;;;5076256;28;20032;-77
2021/05/06 07:20:13;;;;;;;4.63;2.07;;;;;;;;;;5083528;28;20036;-78
2021/05/06 07:22:39;;;;;;;2.77;1.77;;;;;;;;;;5092556;28;20727;-75
2021/05/06 07:25:05;;;;;;;3.87;1.87;;;;;;;;;;5091346;28;20318;-75
2021/05/06 07:27:31;;;;;;;3.17;1.85;;;;;;;;;;5091700;28;20039;-77
2021/05/06 07:29:57;;;;;;;6.53;2.10;;;;;;;;;;5094266;28;20024;-77
2021/05/06 07:32:23;;;;;;;2.60;1.93;;;;;;;;;;5090247;28;20026;-78
2021/05/06 07:34:49;;;;;;;4.32;2.10;;;;;;;;;;5087077;28;20039;-76
2021/05/06 07:37:15;;;;;;;4.13;1.97;;;;;;;;;;5085905;28;20136;-74
2021/05/06 07:39:41;;;;;;;3.40;1.97;;;;;;;;;;5093559;28;20040;-74
2021/05/06 07:42:07;;;;;;;4.25;2.28;;;;;;;;;;5093856;28;20038;-76
2021/05/06 07:44:33;;;;;;;4.43;2.03;;;;;;;;;;5093385;28;20040;-76
2021/05/06 07:47:10;;;;;;;4.73;2.37;;;;;;;;;;5092829;28;20098;-76
2021/05/06 07:49:36;;;;;;;;;;;;;;;;;;5081945;28;20115;-75
2021/05/06 07:52:02;;;;;;;5.32;2.00;;;;;;;;;;5072874;28;20030;-75
2021/05/06 07:54:28;;;;;;;6.37;2.00;;;;;;;;;;5073018;28;20055;-77
2021/05/06 07:56:54;;;;;;;3.45;2.13;;;;;;;;;;5071467;28;20474;-76
2021/05/06 07:59:20;;;;;;;3.77;2.10;;;;;;;;;;5087285;28;20130;-73
2021/05/06 08:01:46;;;;;;;5.37;2.17;;;;;;;;;;5092423;28;20390;-74
2021/05/06 08:04:13;;;;;;;6.80;2.20;;;;;;;;;;5093193;28;20150;-75
2021/05/06 08:06:39;;;;;;;5.35;2.20;;;;;;;;;;5092733;28;20482;-74
2021/05/06 08:09:05;;;;;;;5.27;2.40;;;;;;;;;;5083255;28;20066;-74
2021/05/06 08:11:31;;;;;;;4.00;2.20;;;;;;;;;;5072641;28;20269;-74
2021/05/06 08:13:57;;;;;;;4.30;2.47;;;;;;;;;;5086922;28;20035;-76
2021/05/06 08:16:23;;;;;;;6.13;2.60;;;;;;;;;;5093152;28;20035;-75
2021/05/06 08:18:49;;;;;;;5.28;2.50;;;;;;;;;;5079498;28;20042;-74
2021/05/06 08:21:15;;;;;;;6.10;2.30;;;;;;;;;;5090263;28;20048;-74
2021/05/06 08:23:41;;;;;;;4.60;2.20;;;;;;;;;;5106426;28;20028;-73
2021/05/06 08:26:08;;;;;;;7.50;2.90;;;;;;;;;;5085270;28;20041;-75
2021/05/06 08:28:34;;;;;;;5.45;2.70;;;;;;;;;;5077511;28;20270;-76
2021/05/06 08:31:00;;;;;;;4.70;2.63;;;;;;;;;;5080085;28;20047;-77
2021/05/06 08:33:26;;;;;;;5.03;2.40;;;;;;;;;;5075966;28;20035;-79
2021/05/06 08:35:52;;;;;;;3.43;2.50;;;;;;;;;;5093602;28;20126;-79
2021/05/06 08:38:18;;;;;;;5.10;2.40;;;;;;;;;;5085483;28;20798;-78
2021/05/06 08:40:45;;;;;;;6.13;2.30;;;;;;;;;;5082321;28;20043;-81
2021/05/06 08:43:12;;;;;;;4.78;2.22;;;;;;;;;;5086704;28;20203;-78
2021/05/06 08:45:48;;;;;;;;;;;;;;;;;;5092916;28;20047;-78
2021/05/06 08:48:18;;;;;;;4.43;2.10;;;;;;;;;;5092727;28;19907;-78
2021/05/06 08:50:45;;;;;;;8.23;2.83;;;;;;;;;;5092289;28;20024;-76
2021/05/06 08:53:12;;;;;;;4.85;2.53;;;;;;;;;;5092633;28;20028;-78
2021/05/06 08:55:38;;;;;;;4.70;2.20;;;;;;;;;;5097574;27;20011;-77
2021/05/06 08:58:04;;;;;;;4.07;2.20;;;;;;;;;;5092057;28;20108;-77
2021/05/06 09:00:31;;;;;;;7.93;2.50;;;;;;;;;;5090302;28;20388;-77
2021/05/06 09:02:57;;;;;;;3.45;2.10;;;;;;;;;;5082256;28;20032;-76
2021/05/06 09:05:23;;;;;;;3.47;2.20;;;;;;;;;;5083369;28;20034;-76
2021/05/06 09:07:50;;;;;;;4.72;2.65;;;;;;;;;;5072617;28;20037;-77
2021/05/06 09:10:35;;;;;;;6.18;2.28;;;;;;;;;;5082051;28;20043;-75
2021/05/06 09:13:01;;;;;;;6.15;2.22;;;;;;;;;;5076462;28;20039;-76
2021/05/06 09:15:27;;;;;;;5.60;2.30;;;;;;;;;;5083923;28;20389;-75
2021/05/06 09:17:53;;;;;;;6.73;2.43;;;;;;;;;;5075292;28;20036;-74
2021/05/06 09:20:24;;;;;;;6.07;2.20;;;;;;;;;;5083562;28;20056;-74
2021/05/06 09:22:52;;;;;;;4.38;2.05;;;;;;;;;;5084060;28;20032;-75
2021/05/06 09:25:27;;;;;;;4.25;2.10;;;;;;;;;;5093212;28;20131;-75
2021/05/06 09:28:08;;;;;;;5.32;1.95;;;;;;;;;;5073351;28;20110;-73
2021/05/06 09:30:35;;;;;;;5.47;2.08;;;;;;;;;;5087678;28;20143;-74
2021/05/06 09:33:01;;;;;;;3.92;2.00;;;;;;;;;;5070519;28;20039;-75
2021/05/06 09:35:28;;;;;;;4.00;2.15;;;;;;;;;;5071439;28;20037;-75
2021/05/06 09:37:54;;;;;;;4.82;2.20;;;;;;;;;;5084587;28;20063;-74
2021/05/06 09:40:20;;;;;;;5.70;2.30;;;;;;;;;;5099005;28;20093;-74
2021/05/06 09:42:52;;;;;;;3.95;2.03;;;;;;;;;;5086433;28;20814;-73
2021/05/06 09:45:25;;;;;;;10.80;2.08;;;;;;;;;;5089503;28;20063;-73
2021/05/06 09:48:21;;;;;;;3.97;1.85;;;;;;;;;;5074914;28;20046;-74
2021/05/06 09:50:49;;;;;;;4.97;2.10;;;;;;;;;;5077694;28;20094;-74
2021/05/06 09:53:17;;;;;;;4.70;2.40;;;;;;;;;;5083276;28;20115;-74
2021/05/06 09:55:45;;;;;;;7.97;2.20;;;;;;;;;;5082605;28;20032;-72
2021/05/06 09:58:14;;;;;;;4.75;2.50;;;;;;;;;;5073134;28;20033;-73
2021/05/06 10:00:41;;;;;;;7.53;2.05;;;;;;;;;;5070237;28;20071;-71
2021/05/06 10:03:10;;;;;;;9.80;2.38;;;;;;;;;;5070415;28;20032;-71
2021/05/06 10:05:37;;;;;;;6.15;2.20;;;;;;;;;;5077769;28;20679;-70
2021/05/06 10:08:03;;;;;;;3.85;2.10;;;;;;;;;;5087442;28;20062;-70
2021/05/06 10:10:30;;;;;;;6.13;2.38;;;;;;;;;;5076182;28;20384;-71
2021/05/06 10:12:56;;;;;;;3.15;2.00;;;;;;;;;;5075921;28;20025;-71
2021/05/06 10:15:22;;;;;;;5.80;2.37;;;;;;;;;;5071061;28;20028;-71
2021/05/06 10:17:49;;;;;;;4.72;2.20;;;;;;;;;;5084181;28;20293;-71
2021/05/06 10:20:15;;;;;;;6.93;2.58;;;;;;;;;;5077597;28;20047;-71
2021/05/06 10:22:42;;;;;;;7.43;2.80;;;;;;;;;;5075681;28;20035;-73
2021/05/06 10:25:09;;;;;;;9.85;3.13;;;;;;;;;;5074226;28;20163;-73
2021/05/06 10:27:35;;;;;;;14.98;3.60;;;;;;;;;;5072348;28;20031;-74
2021/05/06 10:30:02;;;;;;;7.10;3.10;;;;;;;;;;5068787;28;20041;-73
2021/05/06 10:32:28;;;;;;;;;;;;;;;;;;5070484;28;20524;-74
2021/05/06 10:34:55;;;;;;;9.35;3.67;;;;;;;;;;5079136;28;19908;-73
2021/05/06 10:37:21;;;;;;;;;;;;;;;;;;5073975;28;20497;-73
2021/05/06 10:39:47;;;;;;;9.90;3.65;;;;;;;;;;5071026;28;19924;-74
2021/05/06 10:42:33;;;;;;;7.85;3.30;;;;;;;;;;5082474;28;20020;-74
2021/05/06 10:45:16;;;;;;;10.98;3.38;;;;;;;;;;5084022;28;20520;-74
2021/05/06 10:47:51;;;;;;;7.82;3.35;;;;;;;;;;5088239;28;20024;-73
2021/05/06 10:50:18;;;;;;;11.15;3.53;;;;;;;;;;5088060;28;20119;-74
2021/05/06 10:52:44;;;;;;;;;;;;;;;;;;5090380;28;20458;-73
2021/05/06 10:55:14;;;;;;;4.65;2.67;;;;;;;;;;5089588;28;19908;-74
2021/05/06 10:57:40;;;;;;;9.55;3.35;;;;;;;;;;5087321;28;20032;-73
2021/05/06 11:00:12;;;;;;;6.93;3.20;;;;;;;;;;5083345;28;20070;-73
2021/05/06 11:02:44;;;;;;;7.80;3.00;;;;;;;;;;5089252;28;20545;-73
2021/05/06 11:05:14;;;;;;;6.25;3.15;;;;;;;;;;5087655;28;20032;-74
2021/05/06 11:07:40;;;;;;;6.93;3.13;;;;;;;;;;5076471;28;20130;-74
2021/05/06 11:10:07;;;;;;;8.82;3.30;;;;;;;;;;5073623;28;20475;-75
2021/05/06 11:12:37;;;;;;;6.78;3.00;;;;;;;;;;5074468;28;20028;-75
2021/05/06 11:15:04;;;;;;;9.30;3.50;;;;;;;;;;5084493;28;20149;-75
2021/05/06 11:17:33;;;;;;;9.25;3.20;;;;;;;;;;5070819;28;20032;-74
2021/05/06 11:20:00;;;;;;;7.53;3.05;;;;;;;;;;5079098;28;20470;-74
2021/05/06 11:22:53;;;;;;;6.05;3.25;;;;;;;;;;5088680;28;20082;-74
2021/05/06 11:25:29;;;;;;;7.40;3.10;;;;;;;;;;5088364;28;20100;-73
2021/05/06 11:28:06;;;;;;;8.05;3.08;;;;;;;;;;5075851;28;20540;-74
2021/05/06 11:30:36;;;;;;;9.73;3.13;;;;;;;;;;5073726;28;20513;-75
2021/05/06 11:36:03;;;;;;;6.85;3.17;;;;;;;;;;5072944;28;20462;-74
2021/05/06 11:38:35;;;;;;;7.22;3.13;;;;;;;;;;5073702;28;20017;-75
2021/05/06 11:41:09;;;;;;;5.63;3.05;;;;;;;;;;5074125;28;20032;-74
2021/05/06 11:43:36;;;;;;;11.85;3.10;;;;;;;;;;5074128;28;20028;-75
2021/05/06 11:46:11;;;;;;;6.82;2.90;;;;;;;;;;5072900;28;20982;-74
2021/05/06 11:48:38;;;;;;;10.55;3.00;;;;;;;;;;5073019;28;20054;-75
2021/05/06 11:51:04;;;;;;;8.98;3.17;;;;;;;;;;5073396;28;20023;-75
2021/05/06 11:53:31;;;;;;;7.35;3.30;;;;;;;;;;5073249;28;20045;-74
2021/05/06 11:55:57;;;;;;;7.97;3.38;;;;;;;;;;5071749;28;20608;-75
2021/05/06 11:58:28;;;;;;;6.73;3.30;;;;;;;;;;5074275;28;20043;-76
2021/05/06 12:00:55;;;;;;;5.65;2.90;;;;;;;;;;5072691;28;20286;-73
2021/05/06 12:03:33;;;;;;;6.22;2.85;;;;;;;;;;5073486;28;20074;-74
2021/05/06 12:06:00;;;;;;;12.43;3.13;;;;;;;;;;5072595;28;20787;-76
2021/05/06 12:08:31;;;;;;;6.07;2.83;;;;;;;;;;5072987;28;20039;-73
2021/05/06 12:10:59;;;;;;;6.15;3.40;;;;;;;;;;5072595;28;20028;-74
2021/05/06 12:13:26;;;;;;;7.38;3.20;;;;;;;;;;5071382;28;20364;-73
2021/05/06 12:15:52;;;;;;;;;;;;;;;;;;5072234;28;20374;-73
2021/05/06 12:18:19;;;;;;;8.48;3.10;;;;;;;;;;5092687;28;19904;-74
2021/05/06 12:20:51;;;;;;;8.75;3.60;;;;;;;;;;5092928;28;20458;-74
2021/05/06 12:23:17;;;;;;;10.52;3.67;;;;;;;;;;5092885;28;20036;-74
2021/05/06 12:25:43;;;;;;;11.27;3.13;;;;;;;;;;5092368;28;20031;-74
2021/05/06 12:28:09;;;;;;;7.73;3.00;;;;;;;;;;5091434;28;20066;-75
2021/05/06 12:30:35;;;;;;;7.77;3.10;;;;;;;;;;5072824;28;20025;-74
2021/05/06 12:33:01;;;;;;;11.60;4.10;;;;;;;;;;5072198;28;20074;-76
2021/05/06 12:35:27;;;;;;;8.50;3.17;;;;;;;;;;5072594;28;20095;-75
2021/05/06 12:37:54;;;;;;;9.18;3.55;;;;;;;;;;5071143;28;20497;-74
2021/05/06 12:40:20;;;;;;;;;;;;;;;;;;5072174;28;20071;-75
2021/05/06 12:42:46;;;;;;;8.13;3.03;;;;;;;;;;5072290;28;19947;-74
2021/05/06 12:45:16;;;;;;;12.07;3.43;;;;;;;;;;5092013;28;20097;-75
2021/05/06 12:47:45;;;;;;;10.80;3.53;;;;;;;;;;5077059;28;20384;-74
2021/05/06 12:50:16;;;;;;;11.77;3.65;;;;;;;;;;5071027;28;20017;-75
2021/05/06 12:52:43;;;;;;;10.38;3.67;;;;;;;;;;5072114;28;20017;-74
2021/05/06 12:55:17;;;;;;;11.05;3.63;;;;;;;;;;5072135;28;20040;-74
2021/05/06 12:57:43;;;;;;;10.30;3.28;;;;;;;;;;5071435;28;20021;-75
2021/05/06 13:00:20;;;;;;;10.65;3.72;;;;;;;;;;5071835;28;20050;-75
2021/05/06 13:02:46;;;;;;;;;;;;;;;;;;5071187;28;20024;-75
2021/05/06 13:05:14;;;;;;;8.68;3.42;;;;;;;;;;5086047;28;20316;-75
2021/05/06 13:07:49;;;;;;;11.63;4.32;;;;;;;;;;5091824;28;20043;-74
2021/05/06 13:10:36;;;;;;;7.23;3.13;;;;;;;;;;5091917;28;20031;-75
2021/05/06 13:13:02;;;;;;;9.20;3.40;;;;;;;;;;5091546;28;20012;-74
2021/05/06 13:15:29;;;;;;;8.52;3.72;;;;;;;;;;5091752;28;20470;-76
2021/05/06 13:17:58;;;;;;;9.38;3.42;;;;;;;;;;5091661;28;20031;-76
2021/05/06 13:20:28;;;;;;;9.75;3.65;;;;;;;;;;5073270;28;20379;-76
2021/05/06 13:23:20;;;;;;;9.07;3.33;;;;;;;;;;5071277;28;20076;-76
2021/05/06 13:25:50;;;;;;;7.80;3.00;;;;;;;;;;5070117;28;20041;-75
2021/05/06 13:28:16;;;;;;;9.73;3.42;;;;;;;;;;5071258;28;20043;-75
2021/05/06 13:30:43;;;;;;;11.33;3.70;;;;;;;;;;5071298;28;20409;-75
2021/05/06 13:33:09;;;;;;;;;;;;;;;;;;5078963;28;20050;-74
2021/05/06 13:35:35;;;;;;;8.40;3.22;;;;;;;;;;5091027;28;19904;-73
2021/05/06 13:38:01;;;;;;;12.77;3.93;;;;;;;;;;5091636;28;20067;-75
2021/05/06 13:40:27;;;;;;;10.93;3.33;;;;;;;;;;5091500;28;20413;-75
2021/05/06 13:42:53;;;;;;;11.68;3.75;;;;;;;;;;5091408;28;20270;-74
2021/05/06 13:45:19;;;;;;;10.37;3.63;;;;;;;;;;5089465;28;20083;-75
2021/05/06 13:47:48;;;;;;;8.37;3.27;;;;;;;;;;5070911;28;20505;-75
2021/05/06 13:50:15;;;;;;;8.27;3.38;;;;;;;;;;5070731;28;20025;-77
2021/05/06 13:52:41;;;;;;;9.95;3.30;;;;;;;;;;5069630;28;20533;-75
2021/05/06 13:55:07;;;;;;;12.00;3.67;;;;;;;;;;5070795;28;20028;-74
2021/05/06 13:57:33;;;;;;;8.20;3.30;;;;;;;;;;5070402;28;20267;-75
2021/05/06 13:59:59;;;;;;;11.33;3.20;;;;;;;;;;5069562;28;20037;-75
2021/05/06 14:02:27;;;;;;;9.38;3.22;;;;;;;;;;5091064;28;20098;-75
2021/05/06 14:04:53;;;;;;;14.57;3.42;;;;;;;;;;5086398;28;20095;-73
2021/05/06 14:07:20;;;;;;;11.57;3.30;;;;;;;;;;5070219;28;20041;-73
2021/05/06 14:09:46;;;;;;;8.80;3.05;;;;;;;;;;5070751;28;20020;-73
2021/05/06 14:12:12;;;;;;;7.82;3.17;;;;;;;;;;5070832;28;20042;-73
2021/05/06 14:14:38;;;;;;;8.57;2.90;;;;;;;;;;5070859;28;20029;-74
2021/05/06 14:17:04;;;;;;;9.07;3.10;;;;;;;;;;5070138;28;20032;-74
2021/05/06 14:19:30;;;;;;;10.23;3.50;;;;;;;;;;5070536;28;20009;-75
2021/05/06 14:21:56;;;;;;;8.07;3.53;;;;;;;;;;5073692;28;20120;-75
2021/05/06 14:24:22;;;;;;;7.78;3.45;;;;;;;;;;5097721;28;20023;-75
2021/05/06 14:26:49;;;;;;;8.18;3.30;;;;;;;;;;5089009;28;20410;-75
2021/05/06 14:29:16;;;;;;;9.93;3.33;;;;;;;;;;5076828;28;20012;-74
2021/05/06 14:31:42;;;;;;;;;;;;;;;;;;5091331;28;20128;-73
2021/05/06 14:34:08;;;;;;;11.10;3.60;;;;;;;;;;5101992;28;19904;-73
2021/05/06 14:36:34;;;;;;;8.93;3.28;;;;;;;;;;5090930;28;20024;-72
2021/05/06 14:39:02;;;;;;;14.10;3.30;;;;;;;;;;5095920;28;20122;-73
2021/05/06 14:41:29;;;;;;;6.60;3.15;;;;;;;;;;5108971;28;20027;-75
2021/05/06 14:43:55;;;;;;;;;;;;;;;;;;5090967;28;20034;-74
2021/05/06 14:46:22;;;;;;;11.40;2.78;;;;;;;;;;5090017;28;19998;-79
2021/05/06 14:48:48;;;;;;;5.45;2.88;;;;;;;;;;5098151;27;20082;-78
2021/05/06 14:51:14;;;;;;;6.90;2.30;;;;;;;;;;5079974;28;20024;-75
2021/05/06 14:53:40;;;;;;;7.47;2.60;;;;;;;;;;5079508;28;20120;-76
2021/05/06 14:56:07;;;;;;;8.70;2.65;;;;;;;;;;5070054;28;20342;-76
2021/05/06 14:58:33;;;;;;;7.18;2.95;;;;;;;;;;5069978;28;20128;-77
2021/05/06 15:00:59;;;;;;;9.80;2.93;;;;;;;;;;5072543;28;20085;-75
2021/05/06 15:03:25;;;;;;;7.10;2.70;;;;;;;;;;5077745;28;20099;-74
2021/05/06 15:05:51;;;;;;;5.75;2.70;;;;;;;;;;5111229;28;20036;-75
2021/05/06 15:08:18;;;;;;;3.87;2.50;;;;;;;;;;5090113;28;20493;-75
2021/05/06 15:10:47;;;;;;;6.45;2.70;;;;;;;;;;5074124;28;20144;-76
2021/05/06 15:13:13;;;;;;;5.97;2.47;;;;;;;;;;5085486;28;20116;-74
2021/05/06 15:15:39;;;;;;;10.07;2.90;;;;;;;;;;5082123;28;20362;-74
2021/05/06 15:18:05;;;;;;;10.00;3.30;;;;;;;;;;5093871;28;20035;-75
2021/05/06 15:20:32;;;;;;;6.83;2.50;;;;;;;;;;5091779;28;20649;-76
2021/05/06 15:22:58;;;;;;;8.70;3.15;;;;;;;;;;5086177;28;20024;-74
2021/05/06 15:25:24;;;;;;;8.57;2.87;;;;;;;;;;5094236;28;20059;-74
2021/05/06 15:27:51;;;;;;;7.35;2.70;;;;;;;;;;5103653;28;20045;-71
2021/05/06 15:30:17;;;;;;;;;;;;;;;;;;5103130;28;20032;-75
2021/05/06 15:32:43;;;;;;;9.38;2.53;;;;;;;;;;5101485;28;20338;-73
2021/05/06 15:35:10;;;;;;;10.07;2.85;;;;;;;;;;5107103;28;20478;-72
2021/05/06 15:37:36;;;;;;;5.90;2.35;;;;;;;;;;5104850;28;20405;-75
2021/05/06 15:40:03;;;;;;;9.98;2.72;;;;;;;;;;5102775;28;20051;-76
2021/05/06 15:42:29;;;;;;;10.57;2.63;;;;;;;;;;5095237;28;20055;-74
2021/05/06 15:44:55;;;;;;;9.13;2.90;;;;;;;;;;5086063;28;20418;-74
2021/05/06 15:47:21;;;;;;;10.60;2.93;;;;;;;;;;5073567;28;20029;-75
2021/05/06 15:49:47;;;;;;;7.30;2.60;;;;;;;;;;5102954;27;20040;-84
2021/05/06 15:52:14;;;;;;;38.87;3.67;;;;;;;;;;5102565;28;20417;-81
2021/05/06 15:54:40;;;;;;;32.13;4.55;;;;;;;;;;5094982;28;20115;-76
2021/05/06 15:57:07;;;;;;;44.65;4.65;;;;;;;;;;5114125;28;20469;-76
2021/05/06 15:59:34;;;;;;;33.45;3.90;;;;;;;;;;5112384;27;20024;-80
2021/05/06 16:02:00;;;;;;;;;;;;;;;;;;5079007;28;20491;-81
2021/05/06 16:04:29;;;;;;;31.60;3.67;;;;;;;;;;5092680;28;19922;-80
2021/05/06 16:06:55;;;;;;;25.25;4.13;;;;;;;;;;5091831;28;20360;-79
2021/05/06 16:09:21;;;;;;;25.37;4.30;;;;;;;;;;5092932;28;20054;-80
2021/05/06 16:11:47;;;;;;;15.00;3.50;;;;;;;;;;5093134;28;20094;-78
2021/05/06 16:14:13;;;;;;;17.67;3.30;;;;;;;;;;5093081;28;20039;-79
2021/05/06 16:16:40;;;;;;;10.27;2.87;;;;;;;;;;5093178;28;20028;-79
2021/05/06 16:19:08;;;;;;;8.10;2.90;;;;;;;;;;5074144;28;20108;-78
2021/05/06 16:21:35;;;;;;;27.65;3.60;;;;;;;;;;5072493;28;20541;-77
2021/05/06 16:24:01;;;;;;;10.45;3.03;;;;;;;;;;5072784;28;20040;-80
2021/05/06 16:26:27;;;;;;;15.18;2.70;;;;;;;;;;5089724;28;20060;-82
2021/05/06 16:28:53;;;;;;;12.07;2.77;;;;;;;;;;5093123;28;20520;-79
2021/05/06 16:31:19;;;;;;;8.10;2.57;;;;;;;;;;5092325;28;20437;-76
2021/05/06 16:33:49;;;;;;;9.53;3.17;;;;;;;;;;5101677;28;20062;-74
2021/05/06 16:38:55;;;;;;;11.70;3.23;;;;;;;;;;5095969;28;20592;-75
2021/05/06 16:41:29;;;;;;;9.85;2.33;;;;;;;;;;5092143;28;20074;-77
2021/05/06 16:46:21;;;;;;;8.27;2.30;;;;;;;;;;5092536;28;20056;-74
2021/05/06 16:48:47;;;;;;;5.78;2.50;;;;;;;;;;5092802;28;20035;-74
2021/05/06 16:51:14;;;;;;;4.80;2.23;;;;;;;;;;5104801;27;20065;-75
2021/05/06 16:53:41;;;;;;;8.93;2.37;;;;;;;;;;5112494;28;20138;-74
2021/05/06 16:56:07;;;;;;;7.30;3.00;;;;;;;;;;5084246;28;20274;-76
2021/05/06 16:58:33;;;;;;;4.90;2.13;;;;;;;;;;5092025;28;20046;-73
2021/05/06 17:00:59;;;;;;;6.10;2.53;;;;;;;;;;5091228;28;20048;-73
2021/05/06 17:03:25;;;;;;;7.00;2.67;;;;;;;;;;5092162;28;20036;-74
2021/05/06 17:05:51;;;;;;;7.07;2.67;;;;;;;;;;5079646;28;20449;-73
2021/05/06 17:08:17;;;;;;;20.47;2.70;;;;;;;;;;5088855;28;20185;-73
2021/05/06 17:10:43;;;;;;;6.13;2.47;;;;;;;;;;5087637;28;20031;-72
2021/05/06 17:13:10;;;;;;;10.87;2.60;;;;;;;;;;5088267;28;20828;-73
2021/05/06 17:15:36;;;;;;;9.65;3.25;;;;;;;;;;5090111;28;20524;-72
2021/05/06 17:18:02;;;;;;;5.88;2.30;;;;;;;;;;5083600;28;20462;-73
2021/05/06 17:20:29;;;;;;;10.67;2.37;;;;;;;;;;5078999;28;20033;-73
2021/05/06 17:22:55;;;;;;;3.63;2.20;;;;;;;;;;5084455;28;20036;-73
2021/05/06 17:25:21;;;;;;;5.43;2.10;;;;;;;;;;5079225;28;20097;-74
2021/05/06 17:27:47;;;;;;;6.10;2.30;;;;;;;;;;5092103;28;20027;-74
2021/05/06 17:30:16;;;;;;;4.75;2.67;;;;;;;;;;5079085;28;20020;-74
2021/05/06 17:32:43;;;;;;;7.38;2.15;;;;;;;;;;5075200;28;20056;-74
2021/05/06 17:35:09;;;;;;;7.28;2.08;;;;;;;;;;5078811;28;20465;-73
2021/05/06 17:37:35;;;;;;;;;;;;;;;;;;5084322;28;20461;-73
2021/05/06 17:40:02;;;;;;;5.13;2.20;;;;;;;;;;5082586;28;19916;-73
2021/05/06 17:42:27;;;;;;;5.03;2.47;;;;;;;;;;5091299;28;20110;-74
2021/05/06 17:44:55;;;;;;;5.87;2.50;;;;;;;;;;5081577;28;20474;-73
2021/05/06 17:47:23;;;;;;;6.53;2.40;;;;;;;;;;5071530;28;20070;-72
2021/05/06 17:49:49;;;;;;;3.72;2.05;;;;;;;;;;5071039;28;20020;-73
2021/05/06 17:52:15;;;;;;;6.73;2.83;;;;;;;;;;5071035;28;20136;-73
2021/05/06 17:54:41;;;;;;;6.32;2.28;;;;;;;;;;5070399;28;20040;-72
2021/05/06 17:57:07;;;;;;;4.68;2.63;;;;;;;;;;5071039;28;20032;-72
2021/05/06 17:59:33;;;;;;;5.23;2.40;;;;;;;;;;5070669;28;20119;-73
2021/05/06 18:01:59;;;;;;;4.77;2.13;;;;;;;;;;5070828;28;20150;-71
2021/05/06 18:04:26;;;;;;;4.45;2.30;;;;;;;;;;5070765;28;20337;-73
2021/05/06 18:06:52;;;;;;;2.47;1.95;;;;;;;;;;5071323;28;20028;-74
2021/05/06 18:09:26;;;;;;;3.33;2.00;;;;;;;;;;5082211;28;20024;-73
2021/05/06 18:12:10;;;;;;;6.88;2.35;;;;;;;;;;5070206;28;20066;-74
2021/05/06 18:14:36;;;;;;;7.60;2.42;;;;;;;;;;5077827;28;20070;-74
2021/05/06 18:17:02;;;;;;;6.80;2.72;;;;;;;;;;5076169;28;20035;-73
2021/05/06 18:19:29;;;;;;;4.80;1.90;;;;;;;;;;5078441;28;20103;-73
2021/05/06 18:21:55;;;;;;;4.32;2.30;;;;;;;;;;5090040;28;20441;-73
2021/05/06 18:24:21;;;;;;;63.50;4.30;;;;;;;;;;5074270;28;20393;-75